sensor_id;sensor_type;location;lat;lon;timestamp;P1;durP1;ratioP1;P2;durP2;ratioP2
74523;SDS011;63074;44.696;10.358;2023-06-14T00:01:59;7.70;;;1.40;;
74523;SDS011;63074;44.696;10.358;2023-06-14T00:04:25;6.22;;;1.38;;
74523;SDS011;63074;44.696;10.358;2023-06-14T00:06:51;4.65;;;1.50;;
74523;SDS011;63074;44.696;10.358;2023-06-14T00:09:17;6.93;;;1.75;;
74523;SDS011;63074;44.696;10.358;2023-06-14T00:11:44;3.85;;;2.35;;
74523;SDS011;63074;44.696;10.358;2023-06-14T00:14:10;7.75;;;2.35;;
74523;SDS011;63074;44.696;10.358;2023-06-14T00:16:36;9.20;;;1.35;;
74523;SDS011;63074;44.696;10.358;2023-06-14T00:19:03;3.63;;;1.30;;
74523;SDS011;63074;44.696;10.358;2023-06-14T00:21:30;6.80;;;1.95;;
74523;SDS011;63074;44.696;10.358;2023-06-14T00:23:59;6.65;;;1.45;;
74523;SDS011;63074;44.696;10.358;2023-06-14T00:26:25;6.38;;;1.33;;
74523;SDS011;63074;44.696;10.358;2023-06-14T00:28:52;5.95;;;1.30;;
74523;SDS011;63074;44.696;10.358;2023-06-14T00:31:22;4.35;;;2.33;;
74523;SDS011;63074;44.696;10.358;2023-06-14T00:33:48;6.32;;;1.45;;
74523;SDS011;63074;44.696;10.358;2023-06-14T00:36:14;3.42;;;1.25;;
74523;SDS011;63074;44.696;10.358;2023-06-14T00:38:40;5.00;;;1.60;;
74523;SDS011;63074;44.696;10.358;2023-06-14T00:41:06;8.90;;;1.70;;
74523;SDS011;63074;44.696;10.358;2023-06-14T00:43:33;5.57;;;1.50;;
74523;SDS011;63074;44.696;10.358;2023-06-14T00:46:00;4.90;;;1.17;;
74523;SDS011;63074;44.696;10.358;2023-06-14T00:48:26;7.88;;;1.50;;
74523;SDS011;63074;44.696;10.358;2023-06-14T00:50:53;4.35;;;1.15;;
74523;SDS011;63074;44.696;10.358;2023-06-14T00:53:20;2.45;;;1.05;;
74523;SDS011;63074;44.696;10.358;2023-06-14T00:55:48;3.53;;;1.08;;
74523;SDS011;63074;44.696;10.358;2023-06-14T00:58:14;2.85;;;1.20;;
74523;SDS011;63074;44.696;10.358;2023-06-14T01:00:41;3.50;;;1.08;;
74523;SDS011;63074;44.696;10.358;2023-06-14T01:03:07;2.67;;;0.65;;
74523;SDS011;63074;44.696;10.358;2023-06-14T01:05:39;4.70;;;1.40;;
74523;SDS011;63074;44.696;10.358;2023-06-14T01:08:23;5.00;;;1.15;;
74523;SDS011;63074;44.696;10.358;2023-06-14T01:11:00;7.50;;;1.27;;
74523;SDS011;63074;44.696;10.358;2023-06-14T01:13:33;3.85;;;1.35;;
74523;SDS011;63074;44.696;10.358;2023-06-14T01:18:28;6.40;;;2.55;;
74523;SDS011;63074;44.696;10.358;2023-06-14T01:20:54;3.28;;;0.95;;
74523;SDS011;63074;44.696;10.358;2023-06-14T01:23:21;4.45;;;1.08;;
74523;SDS011;63074;44.696;10.358;2023-06-14T01:25:49;3.00;;;1.30;;
74523;SDS011;63074;44.696;10.358;2023-06-14T01:28:19;3.15;;;0.90;;
74523;SDS011;63074;44.696;10.358;2023-06-14T01:30:52;2.00;;;1.00;;
74523;SDS011;63074;44.696;10.358;2023-06-14T01:33:23;1.92;;;0.68;;
74523;SDS011;63074;44.696;10.358;2023-06-14T01:35:52;5.38;;;1.20;;
74523;SDS011;63074;44.696;10.358;2023-06-14T01:38:20;2.75;;;1.35;;
74523;SDS011;63074;44.696;10.358;2023-06-14T01:40:49;5.70;;;1.38;;
74523;SDS011;63074;44.696;10.358;2023-06-14T01:43:16;5.10;;;0.98;;
74523;SDS011;63074;44.696;10.358;2023-06-14T01:45:45;4.43;;;0.93;;
74523;SDS011;63074;44.696;10.358;2023-06-14T01:48:12;3.08;;;0.80;;
74523;SDS011;63074;44.696;10.358;2023-06-14T01:50:39;1.65;;;0.70;;
74523;SDS011;63074;44.696;10.358;2023-06-14T01:53:07;2.92;;;0.75;;
74523;SDS011;63074;44.696;10.358;2023-06-14T01:55:34;6.32;;;0.90;;
74523;SDS011;63074;44.696;10.358;2023-06-14T01:58:02;4.00;;;0.90;;
74523;SDS011;63074;44.696;10.358;2023-06-14T02:00:29;5.13;;;1.02;;
74523;SDS011;63074;44.696;10.358;2023-06-14T02:02:55;5.97;;;1.27;;
74523;SDS011;63074;44.696;10.358;2023-06-14T02:05:22;6.63;;;0.77;;
74523;SDS011;63074;44.696;10.358;2023-06-14T02:07:49;2.58;;;1.30;;
74523;SDS011;63074;44.696;10.358;2023-06-14T02:10:15;2.67;;;0.80;;
74523;SDS011;63074;44.696;10.358;2023-06-14T02:12:42;6.05;;;1.10;;
74523;SDS011;63074;44.696;10.358;2023-06-14T02:15:09;8.63;;;1.63;;
74523;SDS011;63074;44.696;10.358;2023-06-14T02:17:41;4.40;;;1.20;;
74523;SDS011;63074;44.696;10.358;2023-06-14T02:20:08;3.92;;;1.05;;
74523;SDS011;63074;44.696;10.358;2023-06-14T02:22:35;3.83;;;1.00;;
74523;SDS011;63074;44.696;10.358;2023-06-14T02:25:01;3.40;;;1.05;;
74523;SDS011;63074;44.696;10.358;2023-06-14T02:27:28;5.82;;;1.35;;
74523;SDS011;63074;44.696;10.358;2023-06-14T02:29:54;5.05;;;0.93;;
74523;SDS011;63074;44.696;10.358;2023-06-14T02:32:20;3.45;;;1.13;;
74523;SDS011;63074;44.696;10.358;2023-06-14T02:34:46;3.38;;;1.63;;
74523;SDS011;63074;44.696;10.358;2023-06-14T02:37:15;11.27;;;1.23;;
74523;SDS011;63074;44.696;10.358;2023-06-14T02:39:41;5.00;;;1.67;;
74523;SDS011;63074;44.696;10.358;2023-06-14T02:42:07;4.53;;;1.30;;
74523;SDS011;63074;44.696;10.358;2023-06-14T02:44:34;5.93;;;1.33;;
74523;SDS011;63074;44.696;10.358;2023-06-14T02:47:01;5.78;;;1.33;;
74523;SDS011;63074;44.696;10.358;2023-06-14T02:49:27;3.63;;;1.42;;
74523;SDS011;63074;44.696;10.358;2023-06-14T02:51:54;6.38;;;1.08;;
74523;SDS011;63074;44.696;10.358;2023-06-14T02:54:21;4.30;;;1.17;;
74523;SDS011;63074;44.696;10.358;2023-06-14T02:56:47;4.68;;;1.55;;
74523;SDS011;63074;44.696;10.358;2023-06-14T02:59:13;6.65;;;1.65;;
74523;SDS011;63074;44.696;10.358;2023-06-14T03:01:40;3.72;;;1.60;;
74523;SDS011;63074;44.696;10.358;2023-06-14T03:04:09;2.88;;;1.27;;
74523;SDS011;63074;44.696;10.358;2023-06-14T03:09:02;3.42;;;1.55;;
74523;SDS011;63074;44.696;10.358;2023-06-14T03:11:34;5.60;;;1.60;;
74523;SDS011;63074;44.696;10.358;2023-06-14T03:14:00;4.70;;;1.13;;
74523;SDS011;63074;44.696;10.358;2023-06-14T03:16:29;3.78;;;1.27;;
74523;SDS011;63074;44.696;10.358;2023-06-14T03:18:56;5.00;;;1.15;;
74523;SDS011;63074;44.696;10.358;2023-06-14T03:21:22;4.40;;;1.27;;
74523;SDS011;63074;44.696;10.358;2023-06-14T03:23:49;3.65;;;1.08;;
74523;SDS011;63074;44.696;10.358;2023-06-14T03:26:16;4.18;;;1.45;;
74523;SDS011;63074;44.696;10.358;2023-06-14T03:28:46;3.58;;;0.95;;
74523;SDS011;63074;44.696;10.358;2023-06-14T03:31:13;6.35;;;0.95;;
74523;SDS011;63074;44.696;10.358;2023-06-14T03:33:41;2.67;;;1.08;;
74523;SDS011;63074;44.696;10.358;2023-06-14T03:36:07;1.55;;;0.60;;
74523;SDS011;63074;44.696;10.358;2023-06-14T03:38:34;1.85;;;0.77;;
74523;SDS011;63074;44.696;10.358;2023-06-14T03:41:00;2.58;;;0.70;;
74523;SDS011;63074;44.696;10.358;2023-06-14T03:43:26;5.28;;;0.90;;
74523;SDS011;63074;44.696;10.358;2023-06-14T03:45:55;4.03;;;0.93;;
74523;SDS011;63074;44.696;10.358;2023-06-14T03:48:21;3.08;;;0.88;;
74523;SDS011;63074;44.696;10.358;2023-06-14T03:50:47;4.80;;;1.48;;
74523;SDS011;63074;44.696;10.358;2023-06-14T03:53:13;2.55;;;1.08;;
74523;SDS011;63074;44.696;10.358;2023-06-14T03:55:40;6.68;;;1.17;;
74523;SDS011;63074;44.696;10.358;2023-06-14T03:58:06;4.43;;;1.13;;
74523;SDS011;63074;44.696;10.358;2023-06-14T04:00:33;4.13;;;1.20;;
74523;SDS011;63074;44.696;10.358;2023-06-14T04:02:59;6.68;;;1.05;;
74523;SDS011;63074;44.696;10.358;2023-06-14T04:05:25;3.60;;;0.90;;
74523;SDS011;63074;44.696;10.358;2023-06-14T04:07:51;3.22;;;0.95;;
74523;SDS011;63074;44.696;10.358;2023-06-14T04:10:20;3.25;;;1.05;;
74523;SDS011;63074;44.696;10.358;2023-06-14T04:12:47;3.25;;;1.02;;
74523;SDS011;63074;44.696;10.358;2023-06-14T04:15:14;5.15;;;1.13;;
74523;SDS011;63074;44.696;10.358;2023-06-14T04:17:40;3.28;;;1.02;;
74523;SDS011;63074;44.696;10.358;2023-06-14T04:20:06;4.38;;;1.05;;
74523;SDS011;63074;44.696;10.358;2023-06-14T04:22:34;3.50;;;0.90;;
74523;SDS011;63074;44.696;10.358;2023-06-14T04:25:01;2.25;;;1.05;;
74523;SDS011;63074;44.696;10.358;2023-06-14T04:27:28;6.55;;;1.25;;
74523;SDS011;63074;44.696;10.358;2023-06-14T04:29:56;5.20;;;1.38;;
74523;SDS011;63074;44.696;10.358;2023-06-14T04:32:26;4.97;;;1.15;;
74523;SDS011;63074;44.696;10.358;2023-06-14T04:34:57;4.10;;;1.45;;
74523;SDS011;63074;44.696;10.358;2023-06-14T04:37:24;2.85;;;1.48;;
74523;SDS011;63074;44.696;10.358;2023-06-14T04:39:55;3.33;;;1.20;;
74523;SDS011;63074;44.696;10.358;2023-06-14T04:42:22;2.75;;;1.05;;
74523;SDS011;63074;44.696;10.358;2023-06-14T04:44:50;3.85;;;1.92;;
74523;SDS011;63074;44.696;10.358;2023-06-14T04:47:21;5.25;;;1.73;;
74523;SDS011;63074;44.696;10.358;2023-06-14T04:49:47;2.10;;;1.30;;
74523;SDS011;63074;44.696;10.358;2023-06-14T04:52:15;4.60;;;1.10;;
74523;SDS011;63074;44.696;10.358;2023-06-14T04:54:42;2.47;;;0.77;;
74523;SDS011;63074;44.696;10.358;2023-06-14T04:57:09;4.05;;;1.40;;
74523;SDS011;63074;44.696;10.358;2023-06-14T04:59:38;4.22;;;1.15;;
74523;SDS011;63074;44.696;10.358;2023-06-14T05:02:05;4.65;;;1.05;;
74523;SDS011;63074;44.696;10.358;2023-06-14T05:04:32;3.22;;;1.08;;
74523;SDS011;63074;44.696;10.358;2023-06-14T05:06:58;2.80;;;1.08;;
74523;SDS011;63074;44.696;10.358;2023-06-14T05:09:26;4.13;;;1.40;;
74523;SDS011;63074;44.696;10.358;2023-06-14T05:11:52;6.75;;;1.48;;
74523;SDS011;63074;44.696;10.358;2023-06-14T05:14:18;7.78;;;2.33;;
74523;SDS011;63074;44.696;10.358;2023-06-14T05:16:45;4.35;;;1.30;;
74523;SDS011;63074;44.696;10.358;2023-06-14T05:19:11;10.18;;;2.28;;
74523;SDS011;63074;44.696;10.358;2023-06-14T05:21:37;6.93;;;1.70;;
74523;SDS011;63074;44.696;10.358;2023-06-14T05:24:04;7.72;;;1.77;;
74523;SDS011;63074;44.696;10.358;2023-06-14T05:26:30;2.88;;;1.73;;
74523;SDS011;63074;44.696;10.358;2023-06-14T05:28:57;3.72;;;2.00;;
74523;SDS011;63074;44.696;10.358;2023-06-14T05:31:25;3.22;;;1.63;;
74523;SDS011;63074;44.696;10.358;2023-06-14T05:33:53;5.20;;;1.60;;
74523;SDS011;63074;44.696;10.358;2023-06-14T05:36:20;4.05;;;1.08;;
74523;SDS011;63074;44.696;10.358;2023-06-14T05:38:46;3.42;;;1.25;;
74523;SDS011;63074;44.696;10.358;2023-06-14T05:41:12;4.22;;;1.55;;
74523;SDS011;63074;44.696;10.358;2023-06-14T05:43:39;6.22;;;1.48;;
74523;SDS011;63074;44.696;10.358;2023-06-14T05:46:05;7.05;;;1.55;;
74523;SDS011;63074;44.696;10.358;2023-06-14T05:48:31;4.25;;;1.63;;
74523;SDS011;63074;44.696;10.358;2023-06-14T05:50:58;4.35;;;1.40;;
74523;SDS011;63074;44.696;10.358;2023-06-14T05:53:25;5.55;;;1.80;;
74523;SDS011;63074;44.696;10.358;2023-06-14T05:55:51;5.65;;;2.42;;
74523;SDS011;63074;44.696;10.358;2023-06-14T05:58:19;4.88;;;2.08;;
74523;SDS011;63074;44.696;10.358;2023-06-14T06:00:46;4.60;;;2.55;;
74523;SDS011;63074;44.696;10.358;2023-06-14T06:03:13;4.13;;;2.45;;
74523;SDS011;63074;44.696;10.358;2023-06-14T06:05:39;4.90;;;2.55;;
74523;SDS011;63074;44.696;10.358;2023-06-14T06:08:05;7.10;;;2.67;;
74523;SDS011;63074;44.696;10.358;2023-06-14T06:10:31;9.00;;;2.97;;
74523;SDS011;63074;44.696;10.358;2023-06-14T06:12:58;6.40;;;3.58;;
74523;SDS011;63074;44.696;10.358;2023-06-14T06:15:24;5.38;;;2.70;;
74523;SDS011;63074;44.696;10.358;2023-06-14T06:17:50;5.47;;;2.85;;
74523;SDS011;63074;44.696;10.358;2023-06-14T06:20:17;6.07;;;2.63;;
74523;SDS011;63074;44.696;10.358;2023-06-14T06:22:43;6.65;;;3.63;;
74523;SDS011;63074;44.696;10.358;2023-06-14T06:25:09;5.25;;;3.28;;
74523;SDS011;63074;44.696;10.358;2023-06-14T06:27:35;6.75;;;4.40;;
74523;SDS011;63074;44.696;10.358;2023-06-14T06:30:05;8.45;;;3.58;;
74523;SDS011;63074;44.696;10.358;2023-06-14T06:32:32;8.55;;;5.03;;
74523;SDS011;63074;44.696;10.358;2023-06-14T06:34:58;8.68;;;4.95;;
74523;SDS011;63074;44.696;10.358;2023-06-14T06:37:25;8.60;;;4.88;;
74523;SDS011;63074;44.696;10.358;2023-06-14T06:39:51;11.02;;;6.30;;
74523;SDS011;63074;44.696;10.358;2023-06-14T06:42:17;14.52;;;6.13;;
74523;SDS011;63074;44.696;10.358;2023-06-14T06:44:43;8.63;;;5.72;;
74523;SDS011;63074;44.696;10.358;2023-06-14T06:47:09;8.18;;;4.53;;
74523;SDS011;63074;44.696;10.358;2023-06-14T06:49:36;9.82;;;5.70;;
74523;SDS011;63074;44.696;10.358;2023-06-14T06:52:05;8.88;;;5.30;;
74523;SDS011;63074;44.696;10.358;2023-06-14T06:54:32;9.38;;;5.72;;
74523;SDS011;63074;44.696;10.358;2023-06-14T06:56:59;10.30;;;5.38;;
74523;SDS011;63074;44.696;10.358;2023-06-14T06:59:26;11.20;;;5.35;;
74523;SDS011;63074;44.696;10.358;2023-06-14T07:01:52;10.77;;;6.22;;
74523;SDS011;63074;44.696;10.358;2023-06-14T07:04:19;9.82;;;5.88;;
74523;SDS011;63074;44.696;10.358;2023-06-14T07:06:46;7.32;;;4.55;;
74523;SDS011;63074;44.696;10.358;2023-06-14T07:09:12;8.50;;;5.35;;
74523;SDS011;63074;44.696;10.358;2023-06-14T07:11:39;8.13;;;4.93;;
74523;SDS011;63074;44.696;10.358;2023-06-14T07:14:06;7.60;;;4.57;;
74523;SDS011;63074;44.696;10.358;2023-06-14T07:16:32;7.95;;;4.55;;
74523;SDS011;63074;44.696;10.358;2023-06-14T07:18:58;7.40;;;4.13;;
74523;SDS011;63074;44.696;10.358;2023-06-14T07:21:27;8.18;;;4.07;;
74523;SDS011;63074;44.696;10.358;2023-06-14T07:23:53;11.32;;;5.03;;
74523;SDS011;63074;44.696;10.358;2023-06-14T07:26:20;6.97;;;3.83;;
74523;SDS011;63074;44.696;10.358;2023-06-14T07:28:47;9.15;;;4.40;;
74523;SDS011;63074;44.696;10.358;2023-06-14T07:31:17;6.97;;;4.90;;
74523;SDS011;63074;44.696;10.358;2023-06-14T07:33:44;8.60;;;4.85;;
74523;SDS011;63074;44.696;10.358;2023-06-14T07:36:10;7.45;;;4.25;;
74523;SDS011;63074;44.696;10.358;2023-06-14T07:38:36;8.07;;;4.70;;
74523;SDS011;63074;44.696;10.358;2023-06-14T07:41:03;6.80;;;4.43;;
74523;SDS011;63074;44.696;10.358;2023-06-14T07:43:29;6.05;;;4.00;;
74523;SDS011;63074;44.696;10.358;2023-06-14T07:45:55;8.40;;;4.50;;
74523;SDS011;63074;44.696;10.358;2023-06-14T07:48:22;8.98;;;5.25;;
74523;SDS011;63074;44.696;10.358;2023-06-14T07:50:48;6.40;;;4.07;;
74523;SDS011;63074;44.696;10.358;2023-06-14T07:53:14;8.23;;;4.35;;
74523;SDS011;63074;44.696;10.358;2023-06-14T07:55:40;7.35;;;5.15;;
74523;SDS011;63074;44.696;10.358;2023-06-14T07:58:08;7.28;;;4.50;;
74523;SDS011;63074;44.696;10.358;2023-06-14T08:00:35;8.50;;;4.57;;
74523;SDS011;63074;44.696;10.358;2023-06-14T08:03:02;8.00;;;4.10;;
74523;SDS011;63074;44.696;10.358;2023-06-14T08:05:29;6.40;;;3.72;;
74523;SDS011;63074;44.696;10.358;2023-06-14T08:07:55;7.35;;;4.28;;
74523;SDS011;63074;44.696;10.358;2023-06-14T08:10:21;7.93;;;4.93;;
74523;SDS011;63074;44.696;10.358;2023-06-14T08:12:48;7.80;;;4.78;;
74523;SDS011;63074;44.696;10.358;2023-06-14T08:15:17;8.05;;;5.15;;
74523;SDS011;63074;44.696;10.358;2023-06-14T08:17:44;7.55;;;4.90;;
74523;SDS011;63074;44.696;10.358;2023-06-14T08:20:10;10.48;;;5.85;;
74523;SDS011;63074;44.696;10.358;2023-06-14T08:22:38;10.25;;;6.45;;
74523;SDS011;63074;44.696;10.358;2023-06-14T08:25:07;9.10;;;5.30;;
74523;SDS011;63074;44.696;10.358;2023-06-14T08:27:34;10.43;;;6.25;;
74523;SDS011;63074;44.696;10.358;2023-06-14T08:30:00;9.60;;;6.00;;
74523;SDS011;63074;44.696;10.358;2023-06-14T08:32:28;9.88;;;4.80;;
74523;SDS011;63074;44.696;10.358;2023-06-14T08:34:54;10.30;;;5.88;;
74523;SDS011;63074;44.696;10.358;2023-06-14T08:37:20;8.38;;;5.13;;
74523;SDS011;63074;44.696;10.358;2023-06-14T08:39:46;8.90;;;5.03;;
74523;SDS011;63074;44.696;10.358;2023-06-14T08:42:13;9.15;;;5.65;;
74523;SDS011;63074;44.696;10.358;2023-06-14T08:44:40;8.98;;;6.10;;
74523;SDS011;63074;44.696;10.358;2023-06-14T08:47:07;8.70;;;5.03;;
74523;SDS011;63074;44.696;10.358;2023-06-14T08:49:35;9.65;;;4.53;;
74523;SDS011;63074;44.696;10.358;2023-06-14T08:52:03;7.80;;;5.07;;
74523;SDS011;63074;44.696;10.358;2023-06-14T08:54:33;9.27;;;5.00;;
74523;SDS011;63074;44.696;10.358;2023-06-14T08:59:38;6.50;;;4.50;;
74523;SDS011;63074;44.696;10.358;2023-06-14T09:02:10;9.52;;;5.70;;
74523;SDS011;63074;44.696;10.358;2023-06-14T09:04:38;8.30;;;5.47;;
74523;SDS011;63074;44.696;10.358;2023-06-14T09:07:05;10.63;;;5.97;;
74523;SDS011;63074;44.696;10.358;2023-06-14T09:09:31;8.93;;;4.63;;
74523;SDS011;63074;44.696;10.358;2023-06-14T09:11:59;6.82;;;3.97;;
74523;SDS011;63074;44.696;10.358;2023-06-14T09:14:25;7.32;;;4.63;;
74523;SDS011;63074;44.696;10.358;2023-06-14T09:16:54;10.02;;;5.80;;
74523;SDS011;63074;44.696;10.358;2023-06-14T09:19:21;9.00;;;6.15;;
74523;SDS011;63074;44.696;10.358;2023-06-14T09:21:50;7.85;;;5.28;;
74523;SDS011;63074;44.696;10.358;2023-06-14T09:24:18;9.18;;;4.82;;
74523;SDS011;63074;44.696;10.358;2023-06-14T09:26:47;8.05;;;4.53;;
74523;SDS011;63074;44.696;10.358;2023-06-14T09:29:13;6.55;;;4.30;;
74523;SDS011;63074;44.696;10.358;2023-06-14T09:31:42;4.95;;;3.15;;
74523;SDS011;63074;44.696;10.358;2023-06-14T09:34:11;6.53;;;3.63;;
74523;SDS011;63074;44.696;10.358;2023-06-14T09:36:37;5.22;;;3.53;;
74523;SDS011;63074;44.696;10.358;2023-06-14T09:39:07;3.65;;;2.47;;
74523;SDS011;63074;44.696;10.358;2023-06-14T09:41:35;3.33;;;2.28;;
74523;SDS011;63074;44.696;10.358;2023-06-14T09:44:03;4.30;;;2.47;;
74523;SDS011;63074;44.696;10.358;2023-06-14T09:46:32;5.68;;;2.60;;
74523;SDS011;63074;44.696;10.358;2023-06-14T09:48:59;3.15;;;2.22;;
74523;SDS011;63074;44.696;10.358;2023-06-14T09:51:27;6.15;;;2.85;;
74523;SDS011;63074;44.696;10.358;2023-06-14T09:53:55;5.05;;;2.88;;
74523;SDS011;63074;44.696;10.358;2023-06-14T09:56:35;4.90;;;2.63;;
74523;SDS011;63074;44.696;10.358;2023-06-14T09:59:05;5.30;;;2.85;;
74523;SDS011;63074;44.696;10.358;2023-06-14T10:01:34;4.25;;;2.42;;
74523;SDS011;63074;44.696;10.358;2023-06-14T10:04:06;6.80;;;3.53;;
74523;SDS011;63074;44.696;10.358;2023-06-14T10:06:35;5.32;;;3.38;;
74523;SDS011;63074;44.696;10.358;2023-06-14T10:09:04;5.93;;;3.50;;
74523;SDS011;63074;44.696;10.358;2023-06-14T10:11:35;4.00;;;2.50;;
74523;SDS011;63074;44.696;10.358;2023-06-14T10:14:03;3.55;;;2.63;;
74523;SDS011;63074;44.696;10.358;2023-06-14T10:16:46;4.90;;;2.75;;
74523;SDS011;63074;44.696;10.358;2023-06-14T10:19:27;5.30;;;3.70;;
74523;SDS011;63074;44.696;10.358;2023-06-14T10:22:27;5.50;;;3.78;;
74523;SDS011;63074;44.696;10.358;2023-06-14T10:24:58;4.63;;;3.38;;
74523;SDS011;63074;44.696;10.358;2023-06-14T10:27:26;4.28;;;2.85;;
74523;SDS011;63074;44.696;10.358;2023-06-14T10:32:20;5.38;;;3.60;;
74523;SDS011;63074;44.696;10.358;2023-06-14T10:34:53;6.97;;;4.25;;
74523;SDS011;63074;44.696;10.358;2023-06-14T10:37:22;6.55;;;4.45;;
74523;SDS011;63074;44.696;10.358;2023-06-14T10:39:50;6.13;;;3.53;;
74523;SDS011;63074;44.696;10.358;2023-06-14T10:42:16;4.30;;;2.95;;
74523;SDS011;63074;44.696;10.358;2023-06-14T10:47:30;3.08;;;2.22;;
74523;SDS011;63074;44.696;10.358;2023-06-14T10:52:42;4.95;;;3.33;;
74523;SDS011;63074;44.696;10.358;2023-06-14T10:55:15;3.67;;;2.40;;
74523;SDS011;63074;44.696;10.358;2023-06-14T10:57:44;6.10;;;2.78;;
74523;SDS011;63074;44.696;10.358;2023-06-14T11:11:01;5.57;;;3.35;;
74523;SDS011;63074;44.696;10.358;2023-06-14T11:13:32;4.45;;;3.30;;
74523;SDS011;63074;44.696;10.358;2023-06-14T11:15:59;6.25;;;3.95;;
74523;SDS011;63074;44.696;10.358;2023-06-14T11:18:25;9.13;;;7.20;;
74523;SDS011;63074;44.696;10.358;2023-06-14T11:20:53;9.35;;;7.40;;
74523;SDS011;63074;44.696;10.358;2023-06-14T11:23:20;9.60;;;6.88;;
74523;SDS011;63074;44.696;10.358;2023-06-14T11:25:51;9.25;;;6.78;;
74523;SDS011;63074;44.696;10.358;2023-06-14T11:28:17;6.85;;;5.60;;
74523;SDS011;63074;44.696;10.358;2023-06-14T11:30:48;6.57;;;4.68;;
74523;SDS011;63074;44.696;10.358;2023-06-14T11:33:24;9.18;;;5.70;;
74523;SDS011;63074;44.696;10.358;2023-06-14T11:35:51;8.30;;;5.80;;
74523;SDS011;63074;44.696;10.358;2023-06-14T11:38:17;7.03;;;5.28;;
74523;SDS011;63074;44.696;10.358;2023-06-14T11:40:44;7.78;;;5.88;;
74523;SDS011;63074;44.696;10.358;2023-06-14T11:43:10;8.10;;;5.93;;
74523;SDS011;63074;44.696;10.358;2023-06-14T11:45:38;8.40;;;7.40;;
74523;SDS011;63074;44.696;10.358;2023-06-14T11:48:04;8.68;;;7.07;;
74523;SDS011;63074;44.696;10.358;2023-06-14T11:50:32;8.10;;;6.70;;
74523;SDS011;63074;44.696;10.358;2023-06-14T11:53:02;7.93;;;6.53;;
74523;SDS011;63074;44.696;10.358;2023-06-14T11:55:32;5.95;;;4.70;;
74523;SDS011;63074;44.696;10.358;2023-06-14T11:58:02;7.15;;;6.03;;
74523;SDS011;63074;44.696;10.358;2023-06-14T12:00:28;8.10;;;7.18;;
74523;SDS011;63074;44.696;10.358;2023-06-14T12:02:55;9.43;;;7.78;;
74523;SDS011;63074;44.696;10.358;2023-06-14T12:05:21;9.82;;;7.38;;
74523;SDS011;63074;44.696;10.358;2023-06-14T12:07:49;8.40;;;6.68;;
74523;SDS011;63074;44.696;10.358;2023-06-14T12:10:18;7.97;;;6.22;;
74523;SDS011;63074;44.696;10.358;2023-06-14T12:12:45;8.40;;;7.47;;
74523;SDS011;63074;44.696;10.358;2023-06-14T12:15:11;8.95;;;8.05;;
74523;SDS011;63074;44.696;10.358;2023-06-14T12:17:37;9.30;;;7.35;;
74523;SDS011;63074;44.696;10.358;2023-06-14T12:20:09;10.25;;;7.55;;
74523;SDS011;63074;44.696;10.358;2023-06-14T12:22:53;12.25;;;8.05;;
74523;SDS011;63074;44.696;10.358;2023-06-14T12:25:34;9.38;;;7.10;;
74523;SDS011;63074;44.696;10.358;2023-06-14T12:28:05;11.27;;;8.30;;
74523;SDS011;63074;44.696;10.358;2023-06-14T12:30:33;11.57;;;9.13;;
74523;SDS011;63074;44.696;10.358;2023-06-14T12:33:01;10.60;;;6.88;;
74523;SDS011;63074;44.696;10.358;2023-06-14T12:35:30;9.38;;;8.43;;
74523;SDS011;63074;44.696;10.358;2023-06-14T12:37:57;9.43;;;7.55;;
74523;SDS011;63074;44.696;10.358;2023-06-14T12:40:23;10.95;;;8.52;;
74523;SDS011;63074;44.696;10.358;2023-06-14T12:42:49;11.32;;;7.35;;
74523;SDS011;63074;44.696;10.358;2023-06-14T12:45:16;8.88;;;7.10;;
74523;SDS011;63074;44.696;10.358;2023-06-14T12:47:42;8.02;;;7.22;;
74523;SDS011;63074;44.696;10.358;2023-06-14T12:50:08;12.68;;;8.80;;
74523;SDS011;63074;44.696;10.358;2023-06-14T12:52:34;8.52;;;7.25;;
74523;SDS011;63074;44.696;10.358;2023-06-14T12:55:01;10.40;;;7.93;;
74523;SDS011;63074;44.696;10.358;2023-06-14T12:57:28;7.32;;;6.13;;
74523;SDS011;63074;44.696;10.358;2023-06-14T12:59:55;14.93;;;8.70;;
74523;SDS011;63074;44.696;10.358;2023-06-14T13:02:21;8.48;;;6.90;;
74523;SDS011;63074;44.696;10.358;2023-06-14T13:04:49;13.85;;;8.35;;
74523;SDS011;63074;44.696;10.358;2023-06-14T13:07:15;8.70;;;7.55;;
74523;SDS011;63074;44.696;10.358;2023-06-14T13:09:42;10.88;;;7.60;;
74523;SDS011;63074;44.696;10.358;2023-06-14T13:12:09;8.90;;;7.63;;
74523;SDS011;63074;44.696;10.358;2023-06-14T13:14:39;13.13;;;7.75;;
74523;SDS011;63074;44.696;10.358;2023-06-14T13:17:07;8.23;;;7.10;;
74523;SDS011;63074;44.696;10.358;2023-06-14T13:19:34;8.75;;;7.07;;
74523;SDS011;63074;44.696;10.358;2023-06-14T13:22:01;9.40;;;8.18;;
74523;SDS011;63074;44.696;10.358;2023-06-14T13:24:27;8.43;;;7.35;;
74523;SDS011;63074;44.696;10.358;2023-06-14T13:26:54;11.75;;;9.05;;
74523;SDS011;63074;44.696;10.358;2023-06-14T13:29:22;13.45;;;8.25;;
74523;SDS011;63074;44.696;10.358;2023-06-14T13:31:49;9.52;;;7.78;;
74523;SDS011;63074;44.696;10.358;2023-06-14T13:34:15;8.77;;;6.38;;
74523;SDS011;63074;44.696;10.358;2023-06-14T13:36:41;9.50;;;6.45;;
74523;SDS011;63074;44.696;10.358;2023-06-14T13:39:08;8.77;;;7.80;;
74523;SDS011;63074;44.696;10.358;2023-06-14T13:41:34;8.02;;;7.22;;
74523;SDS011;63074;44.696;10.358;2023-06-14T13:44:00;9.40;;;6.63;;
74523;SDS011;63074;44.696;10.358;2023-06-14T13:46:29;8.35;;;6.63;;
74523;SDS011;63074;44.696;10.358;2023-06-14T13:48:55;9.27;;;7.78;;
74523;SDS011;63074;44.696;10.358;2023-06-14T13:51:22;8.13;;;7.10;;
74523;SDS011;63074;44.696;10.358;2023-06-14T13:53:49;9.85;;;7.75;;
74523;SDS011;63074;44.696;10.358;2023-06-14T13:56:16;9.32;;;7.65;;
74523;SDS011;63074;44.696;10.358;2023-06-14T13:58:42;9.63;;;7.45;;
74523;SDS011;63074;44.696;10.358;2023-06-14T14:01:08;10.20;;;8.05;;
74523;SDS011;63074;44.696;10.358;2023-06-14T14:03:36;9.23;;;7.15;;
74523;SDS011;63074;44.696;10.358;2023-06-14T14:06:03;10.23;;;8.48;;
74523;SDS011;63074;44.696;10.358;2023-06-14T14:08:30;7.88;;;5.90;;
74523;SDS011;63074;44.696;10.358;2023-06-14T14:10:57;9.35;;;7.80;;
74523;SDS011;63074;44.696;10.358;2023-06-14T14:13:23;9.98;;;6.82;;
74523;SDS011;63074;44.696;10.358;2023-06-14T14:15:50;8.88;;;6.65;;
74523;SDS011;63074;44.696;10.358;2023-06-14T14:18:16;8.65;;;7.15;;
74523;SDS011;63074;44.696;10.358;2023-06-14T14:20:42;8.23;;;6.40;;
74523;SDS011;63074;44.696;10.358;2023-06-14T14:23:09;8.50;;;7.35;;
74523;SDS011;63074;44.696;10.358;2023-06-14T14:25:35;8.27;;;6.25;;
74523;SDS011;63074;44.696;10.358;2023-06-14T14:28:01;8.15;;;6.22;;
74523;SDS011;63074;44.696;10.358;2023-06-14T14:30:27;6.60;;;5.18;;
74523;SDS011;63074;44.696;10.358;2023-06-14T14:32:54;8.98;;;5.72;;
74523;SDS011;63074;44.696;10.358;2023-06-14T14:35:20;7.32;;;5.38;;
74523;SDS011;63074;44.696;10.358;2023-06-14T14:37:48;6.63;;;5.03;;
74523;SDS011;63074;44.696;10.358;2023-06-14T14:40:14;6.97;;;4.95;;
74523;SDS011;63074;44.696;10.358;2023-06-14T14:42:40;7.07;;;5.22;;
74523;SDS011;63074;44.696;10.358;2023-06-14T14:45:07;7.07;;;5.75;;
74523;SDS011;63074;44.696;10.358;2023-06-14T14:47:33;7.85;;;5.60;;
74523;SDS011;63074;44.696;10.358;2023-06-14T14:49:59;9.38;;;6.20;;
74523;SDS011;63074;44.696;10.358;2023-06-14T14:52:26;7.05;;;4.63;;
74523;SDS011;63074;44.696;10.358;2023-06-14T14:54:52;7.15;;;5.22;;
74523;SDS011;63074;44.696;10.358;2023-06-14T14:57:18;6.82;;;5.35;;
74523;SDS011;63074;44.696;10.358;2023-06-14T14:59:45;5.88;;;4.60;;
74523;SDS011;63074;44.696;10.358;2023-06-14T15:02:11;6.97;;;4.97;;